| time (UTC) | temp F | wind direction | speed MPH | gust MPH | rain 1hr in | rain 24hr in | rain mn in | humidity % | barometer mb |
| 20260507081528 | 66 | 268 | 0.0 | 0.0 | 0.00 | 0.00 | 0.00 | 31 | 1014.1 |
| 20260507080021 | 65 | 302 | 0.0 | 0.0 | 0.00 | 0.00 | 0.00 | 31 | 1014.1 |
| 20260507074527 | 65 | 302 | 0.0 | 0.0 | 0.00 | 0.00 | 0.00 | 30 | 1014.2 |
| 20260507073016 | 66 | 302 | 0.0 | 0.0 | 0.00 | 0.00 | 0.00 | 29 | 1014.1 |
| 20260507071513 | 67 | 302 | 0.0 | 0.0 | 0.00 | 0.00 | 0.00 | 28 | 1013.9 |
| 20260507070013 | 68 | 301 | 0.0 | 0.0 | 0.00 | 0.00 | 0.00 | 27 | 1013.8 |
| 20260507064510 | 68 | 304 | 0.0 | 0.0 | 0.00 | 0.00 | 0.00 | 28 | 1013.7 |
| 20260507063009 | 68 | 342 | 0.0 | 0.0 | 0.00 | 0.00 | 0.00 | 29 | 1013.6 |
| 20260507061509 | 70 | 281 | 0.0 | 0.0 | 0.00 | 0.00 | 0.00 | 27 | 1013.5 |
| 20260507060011 | 70 | 281 | 0.0 | 0.0 | 0.00 | 0.00 | 0.00 | 27 | 1013.3 |
| 20260507054510 | 71 | 281 | 0.0 | 0.0 | 0.00 | 0.00 | 0.00 | 27 | 1013.2 |
| 20260507053008 | 71 | 281 | 0.0 | 0.0 | 0.00 | 0.00 | 0.00 | 26 | 1013.0 |
| 20260507051507 | 71 | 281 | 0.0 | 0.0 | 0.00 | 0.00 | 0.00 | 26 | 1012.9 |
| 20260507050010 | 72 | 281 | 0.0 | 0.0 | 0.00 | 0.00 | 0.00 | 25 | 1012.8 |
| 20260507044507 | 73 | 135 | 0.0 | 0.0 | 0.00 | 0.00 | 0.00 | 25 | 1012.7 |
| 20260507043007 | 73 | 134 | 0.0 | 0.0 | 0.00 | 0.00 | 0.00 | 27 | 1012.6 |
| 20260507041505 | 73 | 134 | 0.0 | 0.0 | 0.00 | 0.00 | 0.00 | 27 | 1012.5 |
| 20260507040005 | 71 | 134 | 0.0 | 0.0 | 0.00 | 0.00 | 0.00 | 27 | 1012.3 |
| 20260507034504 | 73 | 134 | 0.0 | 0.0 | 0.00 | 0.00 | 0.00 | 24 | 1012.1 |
| 20260507033003 | 77 | 134 | 0.0 | 0.0 | 0.00 | 0.00 | 0.00 | 22 | 1011.9 |
| 20260507031502 | 77 | 134 | 0.0 | 0.0 | 0.00 | 0.00 | 0.00 | 21 | 1011.8 |
| 20260507030002 | 79 | 135 | 0.0 | 0.0 | 0.00 | 0.00 | 0.00 | 20 | 1011.6 |
| 20260507024502 | 80 | 125 | 0.0 | 2.0 | 0.00 | 0.00 | 0.00 | 20 | 1011.2 |
| 20260507023100 | 80 | 106 | 0.0 | 4.0 | 0.00 | 0.00 | 0.00 | 19 | 1011.1 |
| 20260507021602 | 81 | 133 | 0.0 | 4.0 | 0.00 | 0.00 | 0.00 | 18 | 1011.0 |
| 20260507020104 | 82 | 110 | 1.0 | 7.0 | 0.00 | 0.00 | 0.00 | 18 | 1010.9 |
| 20260507014608 | 83 | 142 | 3.0 | 6.0 | 0.00 | 0.00 | 0.00 | 18 | 1011.0 |
| 20260507013057 | 83 | 127 | 1.0 | 7.0 | 0.00 | 0.00 | 0.00 | 17 | 1010.9 |
| 20260507011604 | 83 | 115 | 0.0 | 7.0 | 0.00 | 0.00 | 0.00 | 17 | 1010.9 |
| 20260507010057 | 83 | 126 | 6.0 | 10.0 | 0.00 | 0.00 | 0.00 | 17 | 1010.9 |
| 20260507004555 | 83 | 203 | 3.0 | 8.0 | 0.00 | 0.00 | 0.00 | 17 | 1011.0 |
| 20260507003053 | 83 | 165 | 1.0 | 6.0 | 0.00 | 0.00 | 0.00 | 17 | 1011.2 |
| 20260507001612 | 83 | 121 | 4.0 | 9.0 | 0.00 | 0.00 | 0.00 | 18 | 1011.0 |
| 20260507000059 | 83 | 76 | 1.0 | 7.0 | 0.00 | 0.00 | 0.00 | 17 | 1011.1 |
| 20260506234555 | 83 | 110 | 1.0 | 10.0 | 0.00 | 0.00 | 0.00 | 18 | 1011.0 |
| 20260506233050 | 83 | 129 | 4.0 | 8.0 | 0.00 | 0.00 | 0.00 | 17 | 1011.2 |
| 20260506231549 | 83 | 159 | 3.0 | 9.0 | 0.00 | 0.00 | 0.00 | 18 | 1011.3 |
| 20260506230051 | 83 | 117 | 4.0 | 9.0 | 0.00 | 0.00 | 0.00 | 18 | 1011.4 |
| 20260506224547 | 83 | 206 | 5.0 | 11.0 | 0.00 | 0.00 | 0.00 | 18 | 1011.5 |
| 20260506223046 | 82 | 143 | 0.0 | 10.0 | 0.00 | 0.00 | 0.00 | 18 | 1011.6 |
| 20260506221545 | 82 | 154 | 4.0 | 9.0 | 0.00 | 0.00 | 0.00 | 18 | 1012.0 |
| 20260506220056 | 82 | 111 | 5.0 | 10.0 | 0.00 | 0.00 | 0.00 | 19 | 1012.3 |
| 20260506214544 | 81 | 105 | 2.0 | 11.0 | 0.00 | 0.00 | 0.00 | 20 | 1012.5 |
| 20260506213040 | 82 | 151 | 4.0 | 12.0 | 0.00 | 0.00 | 0.00 | 20 | 1012.8 |
| 20260506211538 | 82 | 114 | 5.0 | 12.0 | 0.00 | 0.00 | 0.00 | 19 | 1012.9 |
| 20260506210036 | 81 | 146 | 4.0 | 12.0 | 0.00 | 0.00 | 0.00 | 20 | 1013.1 |
| 20260506204536 | 80 | 50 | 5.0 | 13.0 | 0.00 | 0.00 | 0.00 | 21 | 1013.2 |
| 20260506203057 | 80 | 98 | 6.0 | 12.0 | 0.00 | 0.00 | 0.00 | 20 | 1013.2 |
| 20260506201533 | 80 | 64 | 3.0 | 10.0 | 0.00 | 0.00 | 0.00 | 21 | 1013.3 |
| 20260506200043 | 79 | 73 | 0.0 | 7.0 | 0.00 | 0.00 | 0.00 | 21 | 1013.5 |
| 20260506194529 | 78 | 23 | 2.0 | 10.0 | 0.00 | 0.00 | 0.00 | 23 | 1013.6 |
| 20260506193028 | 78 | 110 | 4.0 | 10.0 | 0.00 | 0.00 | 0.00 | 22 | 1013.8 |
| 20260506191528 | 78 | 120 | 0.0 | 7.0 | 0.00 | 0.00 | 0.00 | 22 | 1014.0 |
| 20260506190034 | 78 | 113 | 3.0 | 8.0 | 0.00 | 0.00 | 0.00 | 22 | 1014.1 |
| 20260506184523 | 76 | 103 | 4.0 | 12.0 | 0.00 | 0.00 | 0.00 | 24 | 1014.2 |
| 20260506183023 | 77 | 207 | 3.0 | 14.0 | 0.00 | 0.00 | 0.00 | 23 | 1014.3 |
| 20260506181523 | 77 | 168 | 5.0 | 10.0 | 0.00 | 0.00 | 0.00 | 23 | 1014.3 |
| 20260506180021 | 76 | 104 | 4.0 | 8.0 | 0.00 | 0.00 | 0.00 | 24 | 1014.4 |
| 20260506174519 | 76 | 105 | 1.0 | 5.0 | 0.00 | 0.00 | 0.00 | 23 | 1014.4 |
| 20260506173017 | 74 | 248 | 0.0 | 6.0 | 0.00 | 0.00 | 0.00 | 25 | 1014.4 |
| 20260506171517 | 74 | 24 | 2.0 | 14.0 | 0.00 | 0.00 | 0.00 | 25 | 1014.5 |
| 20260506170013 | 74 | 328 | 3.0 | 14.0 | 0.00 | 0.00 | 0.00 | 26 | 1014.3 |
| 20260506164513 | 73 | 333 | 8.0 | 14.0 | 0.00 | 0.00 | 0.00 | 26 | 1014.2 |
| 20260506163007 | 72 | 311 | 6.0 | 14.0 | 0.00 | 0.00 | 0.00 | 26 | 1014.2 |
| 20260506161507 | 71 | 313 | 6.0 | 16.0 | 0.00 | 0.00 | 0.00 | 26 | 1014.2 |
| 20260506160002 | 71 | 294 | 8.0 | 16.0 | 0.00 | 0.00 | 0.00 | 26 | 1014.2 |
| 20260506154559 | 69 | 330 | 8.0 | 17.0 | 0.00 | 0.00 | 0.00 | 27 | 1014.3 |
| 20260506153109 | 67 | 12 | 3.0 | 7.0 | 0.00 | 0.00 | 0.00 | 32 | 1014.2 |
| 20260506151551 | 67 | 70 | 1.0 | 8.0 | 0.00 | 0.00 | 0.00 | 32 | 1014.1 |
| 20260506150047 | 66 | 6 | 0.0 | 7.0 | 0.00 | 0.00 | 0.00 | 33 | 1014.1 |
| 20260506144545 | 65 | 74 | 0.0 | 10.0 | 0.00 | 0.00 | 0.00 | 35 | 1014.0 |
| 20260506143042 | 64 | 15 | 0.0 | 4.0 | 0.00 | 0.00 | 0.00 | 35 | 1014.0 |
| 20260506141540 | 63 | 39 | 1.0 | 9.0 | 0.00 | 0.00 | 0.00 | 34 | 1013.7 |
| 20260506140039 | 61 | 349 | 2.0 | 8.0 | 0.00 | 0.00 | 0.00 | 34 | 1013.7 |
| 20260506134538 | 60 | 21 | 1.0 | 8.0 | 0.00 | 0.00 | 0.00 | 34 | 1013.6 |
| 20260506133036 | 59 | 327 | 0.0 | 5.0 | 0.00 | 0.00 | 0.00 | 35 | 1013.3 |
| 20260506131537 | 59 | 340 | 1.0 | 5.0 | 0.00 | 0.00 | 0.00 | 35 | 1013.2 |
| 20260506130033 | 58 | 290 | 1.0 | 6.0 | 0.00 | 0.00 | 0.00 | 35 | 1012.8 |
| 20260506124531 | 59 | 335 | 1.0 | 5.0 | 0.00 | 0.00 | 0.00 | 34 | 1012.6 |
| 20260506123029 | 59 | 332 | 3.0 | 8.0 | 0.00 | 0.00 | 0.00 | 34 | 1012.5 |
| 20260506121528 | 60 | 300 | 3.0 | 9.0 | 0.00 | 0.00 | 0.00 | 33 | 1012.4 |
| 20260506120027 | 61 | 340 | 4.0 | 10.0 | 0.00 | 0.00 | 0.00 | 32 | 1012.4 |
| 20260506114526 | 60 | 330 | 5.0 | 10.0 | 0.00 | 0.00 | 0.00 | 34 | 1012.3 |
| 20260506113024 | 58 | 31 | 0.0 | 7.0 | 0.00 | 0.00 | 0.00 | 34 | 1012.2 |
| 20260506111528 | 56 | 323 | 2.0 | 6.0 | 0.00 | 0.00 | 0.00 | 37 | 1012.1 |
| 20260506110021 | 56 | 287 | 0.0 | 0.0 | 0.00 | 0.00 | 0.00 | 38 | 1012.0 |
| 20260506104520 | 56 | 311 | 0.0 | 0.0 | 0.00 | 0.00 | 0.00 | 38 | 1011.9 |
| 20260506103017 | 56 | 311 | 0.0 | 0.0 | 0.00 | 0.00 | 0.00 | 38 | 1011.7 |
| 20260506101514 | 57 | 93 | 0.0 | 3.0 | 0.00 | 0.00 | 0.00 | 37 | 1011.5 |
| 20260506100011 | 57 | 120 | 0.0 | 0.0 | 0.00 | 0.00 | 0.00 | 37 | 1011.1 |
| 20260506094508 | 57 | 283 | 0.0 | 0.0 | 0.00 | 0.00 | 0.00 | 37 | 1010.9 |
| 20260506093006 | 57 | 283 | 0.0 | 1.0 | 0.00 | 0.00 | 0.00 | 37 | 1010.6 |
| 20260506091505 | 58 | 283 | 0.0 | 0.0 | 0.00 | 0.00 | 0.00 | 36 | 1010.5 |
| 20260506090111 | 59 | 283 | 0.0 | 0.0 | 0.00 | 0.00 | 0.00 | 35 | 1010.6 |
| 20260506084633 | 59 | 283 | 0.0 | 0.0 | 0.00 | 0.00 | 0.00 | 35 | 1010.5 |
| 20260506083058 | 60 | 283 | 0.0 | 0.0 | 0.00 | 0.00 | 0.00 | 33 | 1010.7 |